Time;durP1;ratioP1;P1;durP2;ratioP2;P2;SDS_P1;SDS_P2;PMS_P1;PMS_P2;Temp;Humidity;BMP_temperature;BMP_pressure;BME280_temperature;BME280_humidity;BME280_pressure;Samples;Min_cycle;Max_cycle;Signal;HPM_P1;HPM_P2
2023/01/05 00:00:55;;;;;;;1.90;0.88;;;;;;;7.80;100.00;94533.91;4987210;28;20434;-65
2023/01/05 00:03:21;;;;;;;1.60;0.60;;;;;;;7.83;100.00;94537.03;4990582;28;20038;-66
2023/01/05 00:05:48;;;;;;;2.47;1.02;;;;;;;7.83;100.00;94543.31;4990263;28;20299;-66
2023/01/05 00:08:15;;;;;;;3.23;1.43;;;;;;;7.81;100.00;94534.72;4987982;28;20069;-66
2023/01/05 00:24:30;;;;;;;1.80;0.70;;;;;;;7.68;100.00;94514.34;4989029;28;20042;-65
2023/01/05 00:26:57;;;;;;;1.65;0.70;;;;;;;7.67;100.00;94519.03;5009635;28;20372;-66
2023/01/05 00:29:23;;;;;;;1.58;0.75;;;;;;;7.59;100.00;94520.16;5010035;28;20050;-65
2023/01/05 00:31:50;;;;;;;1.80;0.88;;;;;;;7.54;100.00;94524.00;5009653;28;20111;-66
2023/01/05 00:34:17;;;;;;;2.83;1.00;;;;;;;7.49;100.00;94524.38;5008910;28;20054;-66
2023/01/05 00:36:44;;;;;;;1.83;0.77;;;;;;;7.47;100.00;94529.44;5009934;28;20046;-65
2023/01/05 00:39:10;;;;;;;2.15;1.00;;;;;;;7.43;100.00;94530.59;5010620;28;20052;-65
2023/01/05 00:41:37;;;;;;;1.90;0.77;;;;;;;7.46;100.00;94513.44;5013378;28;20461;-65
2023/01/05 00:44:04;;;;;;;1.95;0.70;;;;;;;7.40;100.00;94524.72;5013111;28;20042;-65
2023/01/05 00:46:30;;;;;;;2.40;1.10;;;;;;;7.35;100.00;94511.41;5013039;28;20048;-64
2023/01/05 00:48:57;;;;;;;1.60;0.60;;;;;;;7.34;100.00;94509.81;5013099;28;20052;-64
2023/01/05 00:51:24;;;;;;;2.40;1.00;;;;;;;7.35;100.00;94516.09;5001070;28;20042;-65
2023/01/05 00:53:50;;;;;;;1.65;0.52;;;;;;;7.35;100.00;94516.09;4993890;28;20054;-65
2023/01/05 00:56:17;;;;;;;1.70;0.90;;;;;;;7.35;100.00;94508.69;4991335;28;20241;-65
2023/01/05 00:58:44;;;;;;;1.93;0.83;;;;;;;7.39;100.00;94511.44;5012862;28;20046;-65
2023/01/05 01:01:12;;;;;;;1.95;0.75;;;;;;;7.36;100.00;94507.53;5010942;28;20054;-66
2023/01/05 01:03:39;;;;;;;3.30;1.60;;;;;;;7.34;100.00;94492.66;5013090;28;20042;-66
2023/01/05 01:06:06;;;;;;;2.30;1.30;;;;;;;7.33;100.00;94499.31;5012773;28;20446;-66
2023/01/05 01:08:33;;;;;;;1.70;0.80;;;;;;;7.33;100.00;94502.81;5012871;28;20053;-66
2023/01/05 01:11:06;;;;;;;1.87;0.70;;;;;;;7.32;100.00;94495.00;5012617;28;20048;-64
2023/01/05 01:13:33;;;;;;;2.70;0.88;;;;;;;7.32;100.00;94503.19;5012984;28;20096;-65
2023/01/05 01:16:08;;;;;;;3.20;0.90;;;;;;;7.34;100.00;94509.06;5012177;28;20426;-65
2023/01/05 01:18:35;;;;;;;1.60;0.73;;;;;;;7.35;100.00;94499.72;5012733;28;20041;-65
2023/01/05 01:21:02;;;;;;;1.70;0.80;;;;;;;7.35;100.00;94511.41;5012427;28;20116;-65
2023/01/05 01:23:28;;;;;;;1.70;0.70;;;;;;;7.36;100.00;94515.72;5008058;28;20104;-66
2023/01/05 01:25:55;;;;;;;3.60;0.82;;;;;;;7.38;100.00;94518.03;4981739;28;20035;-66
2023/01/05 01:28:22;;;;;;;2.10;1.10;;;;;;;7.37;100.00;94519.22;4975907;28;20053;-64
2023/01/05 01:30:49;;;;;;;1.65;0.60;;;;;;;7.34;100.00;94526.22;4985028;28;20042;-64
2023/01/05 01:33:16;;;;;;;2.10;0.68;;;;;;;7.34;100.00;94530.91;4991382;28;20038;-64
2023/01/05 01:35:43;;;;;;;7.03;1.73;;;;;;;7.33;100.00;94529.34;4992805;28;20100;-65
2023/01/05 01:38:09;;;;;;;3.00;1.10;;;;;;;7.35;100.00;94530.53;4984672;28;20050;-65
2023/01/05 01:40:40;;;;;;;3.28;1.23;;;;;;;7.32;100.00;94520.34;5009528;28;20041;-65
2023/01/05 01:43:15;;;;;;;1.50;0.70;;;;;;;7.30;100.00;94530.88;5012137;28;20470;-64
2023/01/05 01:45:42;;;;;;;3.28;0.80;;;;;;;7.32;100.00;94534.00;5012343;28;20041;-64
2023/01/05 01:48:12;;;;;;;1.43;0.60;;;;;;;7.30;100.00;94525.41;5011527;28;20104;-64
2023/01/05 01:50:46;;;;;;;4.47;1.27;;;;;;;7.30;100.00;94519.94;5011788;28;20399;-66
2023/01/05 01:53:19;;;;;;;1.90;0.60;;;;;;;7.26;100.00;94512.91;5011812;28;20056;-64
2023/01/05 01:55:46;;;;;;;2.65;0.60;;;;;;;7.26;100.00;94519.13;5012072;28;20480;-65
2023/01/05 01:58:16;;;;;;;2.00;0.60;;;;;;;7.30;100.00;94514.47;5011764;28;20188;-65
2023/01/05 02:00:43;;;;;;;1.53;0.70;;;;;;;7.29;100.00;94523.06;5011418;28;20426;-65
2023/01/05 02:03:10;;;;;;;1.27;0.40;;;;;;;7.27;100.00;94515.25;5026918;28;20478;-66
2023/01/05 02:05:37;;;;;;;1.80;0.73;;;;;;;7.30;100.00;94509.03;5011661;28;20057;-65
2023/01/05 02:08:12;;;;;;;1.60;0.60;;;;;;;7.32;100.00;94517.63;5011346;28;20529;-65
2023/01/05 02:10:57;;;;;;;1.83;0.80;;;;;;;7.29;100.00;94509.44;5011722;28;20107;-65
2023/01/05 02:13:39;;;;;;;1.30;0.50;;;;;;;7.28;100.00;94516.03;5026377;28;20457;-65
2023/01/05 02:16:29;;;;;;;5.07;2.75;;;;;;;7.26;100.00;94513.69;5008002;28;20160;-63
2023/01/05 02:19:32;;;;;;;2.25;1.30;;;;;;;7.31;100.00;94510.59;4986977;28;20050;-64
2023/01/05 02:22:13;;;;;;;1.40;0.60;;;;;;;7.30;100.00;94517.22;5011138;28;20053;-64
2023/01/05 02:24:45;;;;;;;1.33;0.52;;;;;;;7.31;100.00;94507.09;5011581;28;20077;-64
2023/01/05 02:27:20;;;;;;;1.53;0.73;;;;;;;7.30;100.00;94513.72;5011431;28;20045;-64
2023/01/05 02:30:06;;;;;;;2.60;0.70;;;;;;;7.28;100.00;94514.09;5010123;28;20396;-63
2023/01/05 02:32:57;;;;;;;1.60;0.50;;;;;;;7.30;100.00;94508.25;5003906;28;20443;-64
2023/01/05 02:35:42;;;;;;;1.40;0.65;;;;;;;7.28;100.00;94507.84;4991188;28;20785;-64
2023/01/05 02:38:24;;;;;;;4.78;1.10;;;;;;;7.29;100.00;94512.94;4991219;28;20407;-65
2023/01/05 02:40:56;;;;;;;1.60;0.60;;;;;;;7.28;100.00;94514.09;4991592;28;20046;-64
2023/01/05 02:43:25;;;;;;;1.60;0.60;;;;;;;7.26;100.00;94494.56;4991037;28;20535;-65
2023/01/05 02:45:52;;;;;;;4.15;0.93;;;;;;;7.26;100.00;94499.25;4991640;28;20073;-64
2023/01/05 02:48:19;;;;;;;5.93;1.60;;;;;;;7.30;100.00;94491.88;5010166;28;20418;-64
2023/01/05 02:51:00;;;;;;;1.50;0.70;;;;;;;7.31;100.00;94486.03;5010909;28;20042;-64
2023/01/05 02:53:32;;;;;;;1.33;0.53;;;;;;;7.36;100.00;94480.22;5005739;28;20143;-65
2023/01/05 02:56:08;;;;;;;5.35;1.95;;;;;;;7.35;100.00;94473.19;4990590;28;20054;-64
2023/01/05 02:58:45;;;;;;;2.38;0.95;;;;;;;7.35;100.00;94470.44;4991591;28;20046;-64
2023/01/05 03:01:18;;;;;;;2.70;0.82;;;;;;;7.38;100.00;94475.16;4987651;28;20054;-64
2023/01/05 03:03:51;;;;;;;1.55;0.90;;;;;;;7.37;100.00;94464.63;5010916;28;20058;-64
2023/01/05 03:06:33;;;;;;;1.40;0.50;;;;;;;7.36;100.00;94463.03;5010196;28;21731;-65
2023/01/05 03:09:03;;;;;;;1.40;0.57;;;;;;;7.35;100.00;94458.75;5010216;28;20107;-64
2023/01/05 03:14:44;;;;;;;1.35;0.60;;;;;;;7.37;100.00;94459.16;5010157;28;21700;-64
2023/01/05 03:17:16;;;;;;;1.60;0.70;;;;;;;7.41;100.00;94449.03;5010276;28;20050;-65
2023/01/05 03:19:45;;;;;;;1.40;0.60;;;;;;;7.42;100.00;94452.53;4982735;28;20048;-65
2023/01/05 03:37:14;;;;;;;1.50;0.70;;;;;;;7.46;100.00;94451.38;5010062;28;20553;-64
2023/01/05 03:39:43;;;;;;;1.65;0.80;;;;;;;7.48;100.00;94457.25;4996745;28;20411;-64
2023/01/05 03:42:11;;;;;;;1.40;0.60;;;;;;;7.49;100.00;94445.19;5009852;28;20141;-64
2023/01/05 03:44:42;;;;;;;1.77;0.55;;;;;;;7.52;100.00;94443.63;5010694;28;20080;-64
2023/01/05 03:47:10;;;;;;;1.40;0.40;;;;;;;7.53;100.00;94448.72;5009578;28;20034;-64
2023/01/05 03:49:37;;;;;;;1.60;0.45;;;;;;;7.55;100.00;94443.66;5010274;28;20483;-64
2023/01/05 03:52:04;;;;;;;1.20;0.38;;;;;;;7.56;100.00;94436.22;4999880;28;20411;-64
2023/01/05 03:54:31;;;;;;;1.40;0.50;;;;;;;7.57;100.00;94446.00;4990668;28;20430;-64
2023/01/05 03:56:58;;;;;;;1.48;0.57;;;;;;;7.55;100.00;94440.13;5009616;28;20071;-63
2023/01/05 03:59:24;;;;;;;1.40;0.50;;;;;;;7.52;100.00;94443.63;5010276;28;20399;-64
2023/01/05 04:01:51;;;;;;;1.30;0.45;;;;;;;7.48;100.00;94440.88;5009608;28;20120;-64
2023/01/05 04:04:18;;;;;;;1.40;0.63;;;;;;;7.49;100.00;94449.88;5009299;28;20437;-63
2023/01/05 04:06:44;;;;;;;1.40;0.50;;;;;;;7.50;100.00;94441.25;5009887;28;20414;-63
2023/01/05 04:09:11;;;;;;;1.92;0.82;;;;;;;7.43;100.00;94440.47;5009524;28;20046;-63
2023/01/05 04:11:38;;;;;;;2.03;0.50;;;;;;;7.42;100.00;94439.66;5010130;28;20058;-63
2023/01/05 04:14:04;;;;;;;1.50;0.68;;;;;;;7.41;100.00;94446.31;5007340;28;20050;-64
2023/01/05 04:16:31;;;;;;;1.80;1.02;;;;;;;7.40;100.00;94448.25;4996395;28;20050;-64
2023/01/05 04:18:58;;;;;;;1.35;0.60;;;;;;;7.46;100.00;94445.16;5013141;28;20046;-63
2023/01/05 04:21:24;;;;;;;1.40;0.60;;;;;;;7.46;100.00;94454.13;5014095;28;20107;-64
2023/01/05 04:23:51;;;;;;;1.23;0.33;;;;;;;7.45;100.00;94451.78;5013906;28;20048;-64
2023/01/05 04:26:18;;;;;;;1.50;0.45;;;;;;;7.44;100.00;94451.00;5013142;28;20617;-64
2023/01/05 04:28:44;;;;;;;1.55;0.77;;;;;;;7.40;100.00;94461.91;5013574;28;20511;-64
2023/01/05 04:31:11;;;;;;;1.75;0.77;;;;;;;7.43;100.00;94462.31;5012102;28;20354;-64
2023/01/05 04:33:38;;;;;;;1.58;0.77;;;;;;;7.51;100.00;94453.00;5007019;28;20049;-64
2023/01/05 04:36:07;;;;;;;1.30;0.37;;;;;;;7.54;100.00;94460.41;4993496;28;20484;-64
2023/01/05 04:38:33;;;;;;;1.55;0.70;;;;;;;7.51;100.00;94458.47;4989643;28;20407;-64
2023/01/05 04:41:00;;;;;;;1.80;0.80;;;;;;;7.52;100.00;94455.31;4993410;28;20392;-64
2023/01/05 04:43:27;;;;;;;1.40;0.60;;;;;;;7.54;100.00;94446.75;4994034;28;20038;-64
2023/01/05 04:45:54;;;;;;;1.63;0.75;;;;;;;7.48;100.00;94440.88;4993104;28;20073;-64
2023/01/05 04:48:20;;;;;;;1.50;0.70;;;;;;;7.54;100.00;94438.56;4995283;28;20050;-64
2023/01/05 04:50:54;;;;;;;1.40;0.68;;;;;;;7.55;100.00;94448.34;4993614;28;20695;-64
2023/01/05 04:53:22;;;;;;;1.65;0.70;;;;;;;7.58;100.00;94447.56;4985656;28;20868;-64
2023/01/05 04:55:50;;;;;;;1.73;0.50;;;;;;;7.57;100.00;94446.78;4988720;28;20051;-63
2023/01/05 04:58:18;;;;;;;1.40;0.55;;;;;;;7.54;100.00;94442.06;4985380;28;20989;-64
2023/01/05 05:00:44;;;;;;;1.60;0.70;;;;;;;7.58;100.00;94447.56;4991234;28;20117;-64
2023/01/05 05:03:11;;;;;;;1.92;0.60;;;;;;;7.61;100.00;94441.34;4993353;28;20050;-64
2023/01/05 05:05:38;;;;;;;1.50;0.50;;;;;;;7.60;100.00;94445.22;4993492;28;20048;-63
2023/01/05 05:08:04;;;;;;;1.50;0.57;;;;;;;7.61;100.00;94446.78;4993022;28;20047;-64
2023/01/05 05:10:32;;;;;;;1.90;1.00;;;;;;;7.65;100.00;94449.56;4993835;28;20077;-64
2023/01/05 05:12:58;;;;;;;1.50;0.60;;;;;;;7.64;100.00;94453.44;4992895;28;20488;-64
2023/01/05 05:15:25;;;;;;;2.13;0.80;;;;;;;7.71;100.00;94461.69;4993257;28;20045;-64
2023/01/05 05:17:52;;;;;;;2.63;0.70;;;;;;;7.67;100.00;94450.72;4996200;28;20503;-64
2023/01/05 05:20:19;;;;;;;1.77;0.70;;;;;;;7.67;100.00;94450.72;5011927;28;20697;-64
2023/01/05 05:22:45;;;;;;;2.75;0.70;;;;;;;7.66;100.00;94456.56;5009678;28;20492;-64
2023/01/05 05:25:12;;;;;;;1.60;0.80;;;;;;;7.67;100.00;94461.66;4974899;28;20554;-64
2023/01/05 05:27:39;;;;;;;1.60;0.70;;;;;;;7.64;100.00;94458.91;5004681;28;20077;-64
2023/01/05 05:30:06;;;;;;;1.40;0.50;;;;;;;7.63;100.00;94460.09;4992596;28;20047;-64
2023/01/05 05:32:33;;;;;;;1.60;0.60;;;;;;;7.56;100.00;94460.81;4991305;28;20165;-64
2023/01/05 05:35:05;;;;;;;2.35;0.85;;;;;;;7.50;100.00;94457.66;4992226;28;20455;-64
2023/01/05 05:37:32;;;;;;;1.53;0.73;;;;;;;7.51;100.00;94458.47;4988351;28;20505;-64
2023/01/05 05:39:58;;;;;;;1.67;0.68;;;;;;;7.56;100.00;94455.34;4983865;28;20077;-64
2023/01/05 05:42:25;;;;;;;1.88;1.05;;;;;;;7.54;100.00;94460.41;4987716;28;20052;-64
2023/01/05 05:44:52;;;;;;;1.50;0.60;;;;;;;7.55;100.00;94460.03;4984402;28;20050;-64
2023/01/05 05:47:18;;;;;;;1.60;0.77;;;;;;;7.51;100.00;94459.22;4991985;28;20843;-64
2023/01/05 05:49:45;;;;;;;1.70;0.60;;;;;;;7.50;100.00;94459.59;5006729;28;20058;-64
2023/01/05 05:52:12;;;;;;;1.70;0.80;;;;;;;7.47;100.00;94457.66;4998736;28;20050;-64
2023/01/05 05:54:39;;;;;;;1.50;0.60;;;;;;;7.43;100.00;94457.63;5012036;28;20390;-64
2023/01/05 05:57:05;;;;;;;1.50;0.52;;;;;;;7.45;100.00;94471.69;4979266;28;20550;-64
2023/01/05 05:59:32;;;;;;;1.60;0.70;;;;;;;7.49;100.00;94464.28;4984801;28;20056;-64
2023/01/05 06:01:59;;;;;;;1.70;0.60;;;;;;;7.50;100.00;94463.13;4992891;28;20042;-64
2023/01/05 06:04:25;;;;;;;1.50;0.70;;;;;;;7.53;100.00;94458.84;4986443;28;20054;-65
2023/01/05 06:06:52;;;;;;;1.55;0.60;;;;;;;7.50;100.00;94465.06;5009663;28;20095;-64
2023/01/05 06:09:19;;;;;;;2.50;1.20;;;;;;;7.49;100.00;94463.53;4999517;28;20934;-64
2023/01/05 06:11:45;;;;;;;1.95;0.98;;;;;;;7.56;100.00;94467.03;4988376;28;20422;-64
2023/01/05 06:14:12;;;;;;;3.37;1.10;;;;;;;7.57;100.00;94463.16;5009410;28;20049;-64
2023/01/05 06:16:39;;;;;;;1.52;0.70;;;;;;;7.59;100.00;94477.22;5011666;28;20046;-64
2023/01/05 06:19:06;;;;;;;2.38;1.08;;;;;;;7.64;100.00;94470.59;5011099;28;20064;-65
2023/01/05 06:21:33;;;;;;;1.63;0.70;;;;;;;7.58;100.00;94475.63;5012004;28;20045;-64
2023/01/05 06:23:59;;;;;;;1.83;0.90;;;;;;;7.64;100.00;94486.22;5010831;28;20049;-64
2023/01/05 06:26:26;;;;;;;1.93;0.80;;;;;;;7.60;100.00;94489.69;5011557;28;20552;-64
2023/01/05 06:28:52;;;;;;;1.50;0.50;;;;;;;7.60;100.00;94492.44;5003022;28;20058;-63
2023/01/05 06:31:19;;;;;;;1.77;0.45;;;;;;;7.55;100.00;94490.06;4991715;28;20042;-64
2023/01/05 06:33:46;;;;;;;1.50;0.57;;;;;;;7.52;100.00;94493.56;4985123;28;20064;-64
2023/01/05 06:36:13;;;;;;;2.42;1.00;;;;;;;7.54;100.00;94493.19;4978165;28;20130;-65
2023/01/05 06:38:39;;;;;;;2.10;0.87;;;;;;;7.50;100.00;94497.84;4991433;28;20053;-64
2023/01/05 06:41:06;;;;;;;2.65;1.10;;;;;;;7.45;100.00;94504.44;4989520;28;20104;-64
2023/01/05 06:43:33;;;;;;;1.83;0.80;;;;;;;7.43;100.00;94506.78;4990331;28;20042;-64
2023/01/05 06:46:00;;;;;;;3.65;1.75;;;;;;;7.40;100.00;94505.59;4990987;28;20050;-64
2023/01/05 06:48:26;;;;;;;2.15;1.00;;;;;;;7.43;100.00;94511.47;4991770;28;20488;-64
2023/01/05 06:50:53;;;;;;;2.67;1.37;;;;;;;7.44;100.00;94505.59;4986274;28;20065;-63
2023/01/05 06:53:20;;;;;;;1.70;0.65;;;;;;;7.50;100.00;94517.72;5008973;28;20133;-64
2023/01/05 06:55:46;;;;;;;1.50;0.70;;;;;;;7.51;100.00;94521.28;5011208;28;20056;-64
2023/01/05 06:58:13;;;;;;;2.72;1.00;;;;;;;7.50;100.00;94519.69;5010392;28;20060;-64
2023/01/05 07:00:40;;;;;;;1.80;0.75;;;;;;;7.46;100.00;94521.63;5010483;28;20093;-64
2023/01/05 07:03:09;;;;;;;1.60;0.60;;;;;;;7.40;100.00;94524.72;5010419;28;20038;-64
2023/01/05 07:05:36;;;;;;;1.50;0.52;;;;;;;7.37;100.00;94530.16;5011008;28;20058;-64
2023/01/05 07:08:03;;;;;;;2.25;0.80;;;;;;;7.46;100.00;94530.59;5005304;28;20462;-65
2023/01/05 07:10:29;;;;;;;1.67;0.60;;;;;;;7.47;100.00;94523.97;4991143;28;20422;-64
2023/01/05 07:12:56;;;;;;;1.70;0.80;;;;;;;7.52;100.00;94525.56;4988753;28;20042;-64
2023/01/05 07:15:23;;;;;;;2.00;1.00;;;;;;;7.52;100.00;94526.31;4991105;28;20092;-64
2023/01/05 07:17:50;;;;;;;2.30;0.77;;;;;;;7.47;100.00;94515.00;4991319;28;20430;-64
2023/01/05 07:20:19;;;;;;;2.65;0.70;;;;;;;7.56;100.00;94520.91;4994252;28;20891;-64
2023/01/05 07:22:46;;;;;;;1.77;0.90;;;;;;;7.55;100.00;94511.94;4984698;28;20120;-65
2023/01/05 07:25:13;;;;;;;3.17;0.77;;;;;;;7.56;100.00;94512.69;4979153;28;20050;-64
2023/01/05 07:27:39;;;;;;;2.73;0.70;;;;;;;7.61;100.00;94520.53;4989188;28;20073;-64
2023/01/05 07:30:06;;;;;;;1.60;0.60;;;;;;;7.63;100.00;94520.16;4997125;28;20045;-64
2023/01/05 07:32:33;;;;;;;6.38;3.40;;;;;;;7.59;100.00;94520.16;5010591;28;20403;-64
2023/01/05 07:35:00;;;;;;;6.70;3.50;;;;;;;7.59;100.00;94512.72;5009528;28;20050;-64
2023/01/05 07:37:26;;;;;;;4.10;2.25;;;;;;;7.65;100.00;94528.78;5006037;28;20053;-64
2023/01/05 07:39:53;;;;;;;17.77;7.60;;;;;;;7.68;100.00;94531.50;4989937;28;20096;-64
2023/01/05 07:42:20;;;;;;;5.28;2.20;;;;;;;7.60;100.00;94544.31;4990945;28;20042;-64
2023/01/05 07:44:47;;;;;;;5.15;1.88;;;;;;;7.55;100.00;94544.69;4990757;28;20050;-65
2023/01/05 07:47:13;;;;;;;3.05;1.23;;;;;;;7.63;100.00;94548.25;4989968;28;20412;-65
2023/01/05 07:49:40;;;;;;;4.80;2.50;;;;;;;7.71;100.00;94558.06;4986679;28;20050;-64
2023/01/05 07:52:07;;;;;;;2.17;1.10;;;;;;;7.62;100.00;94554.09;5006989;28;20045;-65
2023/01/05 07:54:33;;;;;;;2.47;1.17;;;;;;;7.60;100.00;94557.97;5010224;28;20076;-65
2023/01/05 07:57:00;;;;;;;4.82;1.50;;;;;;;7.58;100.00;94545.88;5009287;28;20037;-64
2023/01/05 07:59:27;;;;;;;2.58;1.33;;;;;;;7.56;100.00;94559.91;5009928;28;20411;-65
2023/01/05 08:01:53;;;;;;;4.05;1.45;;;;;;;7.49;100.00;94559.88;4987892;28;20045;-64
2023/01/05 08:04:20;;;;;;;5.17;2.30;;;;;;;7.56;100.00;94564.59;4986141;28;20042;-64
2023/01/05 08:06:47;;;;;;;6.25;1.90;;;;;;;7.47;100.00;94567.66;5005463;28;20071;-64
2023/01/05 08:11:59;;;;;;;4.32;2.08;;;;;;;7.41;100.00;94571.91;4989895;28;20046;-66
2023/01/05 08:14:25;;;;;;;4.80;3.20;;;;;;;7.44;100.00;94581.28;4986652;28;20042;-66
2023/01/05 08:16:52;;;;;;;3.20;1.80;;;;;;;7.37;100.00;94590.22;5005321;28;20494;-65
2023/01/05 08:19:19;;;;;;;3.33;2.00;;;;;;;7.36;100.00;94591.38;5008887;28;20204;-66
2023/01/05 08:21:46;;;;;;;2.20;1.10;;;;;;;7.53;100.00;94598.91;5009862;28;20111;-65
2023/01/05 08:24:38;;;;;;;3.80;2.10;;;;;;;7.67;100.00;94595.50;4985353;28;20050;-65
2023/01/05 08:27:05;;;;;;;3.53;1.52;;;;;;;7.68;100.00;94605.25;4978931;28;20053;-65
2023/01/05 08:29:32;;;;;;;2.93;1.70;;;;;;;7.85;100.00;94597.56;4988070;28;20049;-65
2023/01/05 08:31:59;;;;;;;4.72;1.95;;;;;;;7.93;100.00;94596.47;4986687;28;20068;-65
2023/01/05 08:34:25;;;;;;;7.28;2.90;;;;;;;7.94;100.00;94598.78;4989770;28;20104;-65
2023/01/05 08:37:00;;;;;;;6.35;2.75;;;;;;;8.04;100.00;94593.78;5009287;28;20049;-65
2023/01/05 08:39:26;;;;;;;7.95;3.88;;;;;;;8.15;100.00;94591.88;5009456;28;20046;-66
2023/01/05 08:41:53;;;;;;;5.70;2.60;;;;;;;8.07;100.00;94585.59;5009259;28;20410;-65
2023/01/05 08:44:28;;;;;;;5.07;2.28;;;;;;;8.13;100.00;94594.19;5009422;28;20073;-66
2023/01/05 08:46:54;;;;;;;3.78;1.77;;;;;;;8.01;100.00;94584.41;5009190;28;20048;-65
2023/01/05 08:49:22;;;;;;;4.93;2.15;;;;;;;7.95;100.00;94602.31;5009502;28;20046;-65
2023/01/05 08:51:49;;;;;;;5.50;2.10;;;;;;;7.98;100.00;94604.28;5009639;28;20080;-65
2023/01/05 08:54:15;;;;;;;5.27;2.20;;;;;;;8.04;100.00;94610.94;5008870;28;20050;-65
2023/01/05 08:56:43;;;;;;;3.10;1.40;;;;;;;8.09;100.00;94607.06;5009756;28;20050;-65
2023/01/05 08:59:12;;;;;;;2.90;1.50;;;;;;;7.95;100.00;94605.84;5009094;28;20099;-63
2023/01/05 09:01:39;;;;;;;2.38;1.10;;;;;;;7.94;100.00;94612.44;5012680;28;20049;-63
2023/01/05 09:04:07;;;;;;;2.50;1.10;;;;;;;7.99;100.00;94616.78;5012476;28;20049;-63
2023/01/05 09:06:34;;;;;;;4.07;1.53;;;;;;;7.98;100.00;94616.00;5013222;28;20377;-64
2023/01/05 09:09:00;;;;;;;2.20;1.00;;;;;;;7.92;100.00;94617.50;5012342;28;20060;-64
2023/01/05 09:11:27;;;;;;;2.90;1.30;;;;;;;7.87;100.00;94611.63;5028030;28;20438;-65
2023/01/05 09:13:57;;;;;;;2.92;1.50;;;;;;;7.81;100.00;94619.41;5027720;28;20056;-64
2023/01/05 09:16:27;;;;;;;2.40;1.33;;;;;;;7.77;100.00;94624.06;5012685;28;20483;-65
2023/01/05 09:19:13;;;;;;;3.10;1.60;;;;;;;7.80;100.00;94618.59;5012183;28;20054;-66
2023/01/05 09:21:40;;;;;;;4.03;1.10;;;;;;;7.83;100.00;94619.81;5012798;28;20483;-64
2023/01/05 09:24:12;;;;;;;4.75;2.25;;;;;;;8.03;100.00;94616.78;5012015;28;20056;-64
2023/01/05 09:26:41;;;;;;;2.17;1.08;;;;;;;8.13;100.00;94625.06;5000283;28;20042;-65
2023/01/05 09:29:08;;;;;;;2.10;0.98;;;;;;;8.14;100.00;94620.38;5012197;28;20057;-66
2023/01/05 09:31:35;;;;;;;2.00;0.87;;;;;;;8.13;100.00;94616.88;5012145;28;20049;-65
2023/01/05 09:34:02;;;;;;;1.98;0.90;;;;;;;8.28;100.00;94619.69;5011806;28;20049;-65
2023/01/05 09:36:29;;;;;;;2.50;1.30;;;;;;;8.31;100.00;94616.16;5012697;28;20381;-65
2023/01/05 09:38:56;;;;;;;2.75;0.80;;;;;;;8.28;100.00;94620.44;5012101;28;20042;-65
2023/01/05 09:41:32;;;;;;;1.80;0.90;;;;;;;8.25;100.00;94620.44;5012046;28;20042;-66
2023/01/05 09:44:06;;;;;;;2.33;1.13;;;;;;;8.18;100.00;94629.38;4991628;28;20068;-65
2023/01/05 09:46:38;;;;;;;2.70;1.05;;;;;;;8.10;100.00;94633.25;4990986;28;20439;-65
2023/01/05 09:49:11;;;;;;;2.63;1.02;;;;;;;8.13;100.00;94635.19;4992279;28;20046;-65
2023/01/05 09:51:38;;;;;;;1.80;0.85;;;;;;;8.07;100.00;94644.94;4994015;28;20046;-65
2023/01/05 09:54:05;;;;;;;2.75;1.40;;;;;;;8.13;100.00;94637.94;5011074;28;20038;-64
2023/01/05 09:56:36;;;;;;;2.37;0.90;;;;;;;8.16;100.00;94645.38;5012132;28;20100;-65
2023/01/05 09:59:28;;;;;;;2.85;0.90;;;;;;;8.03;100.00;94652.31;5010566;28;20271;-64
2023/01/05 10:01:59;;;;;;;3.33;1.50;;;;;;;8.06;100.00;94655.09;5009512;28;20046;-64
2023/01/05 10:04:28;;;;;;;3.50;1.27;;;;;;;8.07;100.00;94658.59;4992193;28;20042;-64
2023/01/05 10:07:14;;;;;;;9.27;4.55;;;;;;;8.20;100.00;94657.91;4991689;28;20565;-64
2023/01/05 10:09:41;;;;;;;23.10;13.60;;;;;;;8.23;100.00;94661.03;4990402;28;20054;-64
2023/01/05 10:14:58;;;;;;;3.10;1.67;;;;;;;8.42;100.00;94673.69;4991575;28;20100;-64
2023/01/05 10:17:28;;;;;;;2.13;0.93;;;;;;;8.45;100.00;94664.69;4994283;28;20046;-65
2023/01/05 10:20:47;;;;;;;2.72;1.50;;;;;;;8.19;100.00;94664.56;5007003;28;20513;-65
2023/01/05 10:23:59;;;;;;;2.50;1.00;;;;;;;8.59;100.00;94679.25;5004378;28;20058;-65
2023/01/05 10:26:54;;;;;;;3.00;1.17;;;;;;;8.67;100.00;94679.25;5007806;28;20622;-65
2023/01/05 10:29:47;;;;;;;2.50;0.88;;;;;;;9.66;100.00;94682.63;5010674;28;20049;-65
2023/01/05 10:32:22;;;;;;;3.42;1.17;;;;;;;9.69;100.00;94685.38;5010743;28;20058;-65
2023/01/05 10:34:57;;;;;;;4.88;1.95;;;;;;;9.84;100.00;94682.63;5011693;28;20046;-64
2023/01/05 10:37:51;;;;;;;6.00;1.60;;;;;;;9.60;100.00;94674.81;4990923;28;20114;-65
2023/01/05 10:40:26;;;;;;;3.10;1.30;;;;;;;10.18;99.43;94661.88;4990679;28;20042;-65
2023/01/05 10:43:22;;;;;;;2.78;0.70;;;;;;;10.64;92.92;94662.94;4984461;28;20435;-65
2023/01/05 10:45:49;;;;;;;3.53;1.27;;;;;;;10.63;91.26;94661.38;5008801;28;20391;-65
2023/01/05 10:48:37;;;;;;;2.95;1.10;;;;;;;10.79;90.44;94658.19;5010248;28;20216;-65
2023/01/05 10:51:05;;;;;;;4.53;1.10;;;;;;;10.28;92.13;94657.53;4997587;28;20079;-65
2023/01/05 10:53:35;;;;;;;4.07;1.10;;;;;;;10.42;92.48;94664.97;5010697;28;20046;-65
2023/01/05 10:56:09;;;;;;;5.75;1.77;;;;;;;10.85;90.06;94651.09;5010828;28;20116;-65
2023/01/05 10:58:38;;;;;;;4.80;1.30;;;;;;;11.45;88.93;94653.88;5010847;28;20054;-65
2023/01/05 11:01:17;;;;;;;6.00;3.28;;;;;;;11.66;83.66;94648.25;5009832;28;20046;-65
2023/01/05 11:03:47;;;;;;;3.60;0.97;;;;;;;11.85;80.62;94652.44;4995617;28;20155;-66
2023/01/05 11:06:36;;;;;;;2.45;0.70;;;;;;;13.77;78.65;94652.56;5009976;28;21803;-66
2023/01/05 11:09:19;;;;;;;7.22;3.53;;;;;;;12.97;76.39;94638.28;5010336;28;20053;-66
2023/01/05 11:12:17;;;;;;;5.00;2.00;;;;;;;12.48;76.00;94640.47;5009664;28;20100;-66
2023/01/05 11:14:49;;;;;;;5.57;2.30;;;;;;;12.29;76.73;94636.31;4998436;28;20945;-66
2023/01/05 11:17:27;;;;;;;4.00;1.10;;;;;;;11.85;78.34;94635.13;4997011;28;20650;-66
2023/01/05 11:19:56;;;;;;;4.85;1.63;;;;;;;11.03;86.36;94641.97;4985807;28;20054;-65
2023/01/05 11:22:39;;;;;;;3.38;1.10;;;;;;;10.86;85.67;94640.88;5009744;28;20037;-65
2023/01/05 11:25:23;;;;;;;4.03;1.10;;;;;;;10.91;85.60;94635.00;5009935;28;20445;-64
2023/01/05 11:28:16;;;;;;;3.55;0.90;;;;;;;10.75;86.78;94638.97;4994828;28;20073;-65
2023/01/05 11:31:04;;;;;;;3.40;0.90;;;;;;;10.79;86.89;94647.97;4993856;28;20189;-65
2023/01/05 11:33:34;;;;;;;9.63;4.75;;;;;;;10.97;87.22;94636.13;4989572;28;20651;-65
2023/01/05 11:36:04;;;;;;;3.78;1.30;;;;;;;11.02;84.65;94626.69;4989176;28;20050;-65
2023/01/05 11:38:31;;;;;;;4.57;1.67;;;;;;;10.86;88.11;94633.44;4990702;28;20046;-65
2023/01/05 11:40:59;;;;;;;5.70;2.20;;;;;;;10.57;87.89;94636.31;4989760;28;20042;-65
2023/01/05 11:43:30;;;;;;;3.97;1.27;;;;;;;10.36;86.08;94628.13;4984362;28;20295;-65
2023/01/05 11:46:00;;;;;;;5.95;2.40;;;;;;;10.70;89.96;94641.34;5008395;28;20053;-65
2023/01/05 11:48:31;;;;;;;5.32;1.30;;;;;;;10.41;87.17;94635.97;5010306;28;20050;-65
2023/01/05 11:50:58;;;;;;;7.05;1.98;;;;;;;11.81;84.88;94624.16;5009081;28;20119;-66
2023/01/05 11:53:38;;;;;;;3.92;1.00;;;;;;;11.91;79.83;94631.59;4990335;28;20046;-65
2023/01/05 11:56:21;;;;;;;3.40;1.20;;;;;;;11.92;81.16;94630.38;4972201;28;20065;-65
2023/01/05 11:58:50;;;;;;;5.60;1.60;;;;;;;11.65;83.14;94626.66;5005108;28;20622;-66
2023/01/05 12:01:26;;;;;;;3.72;1.30;;;;;;;11.54;84.11;94630.25;5007887;28;20100;-65
2023/01/05 12:04:10;;;;;;;3.33;1.17;;;;;;;11.35;81.86;94628.84;4993293;28;20042;-66
2023/01/05 12:07:03;;;;;;;7.50;1.70;;;;;;;11.50;84.84;94635.00;4990788;28;20484;-65
2023/01/05 12:09:31;;;;;;;6.17;1.40;;;;;;;12.28;81.75;94629.28;4993472;28;20669;-65
2023/01/05 12:12:34;;;;;;;4.82;1.63;;;;;;;11.42;83.56;94621.72;5008920;28;20053;-65
2023/01/05 12:15:10;;;;;;;3.70;1.38;;;;;;;11.71;80.19;94619.53;5009533;28;20119;-64
2023/01/05 12:17:51;;;;;;;4.20;1.73;;;;;;;12.04;81.44;94623.59;5009696;28;20046;-65
2023/01/05 12:20:39;;;;;;;6.18;1.48;;;;;;;11.82;81.14;94622.97;5024199;28;20037;-65
2023/01/05 12:23:26;;;;;;;2.50;0.87;;;;;;;11.02;82.73;94629.44;5009538;28;20046;-65
2023/01/05 12:26:15;;;;;;;4.65;1.70;;;;;;;10.96;84.05;94627.09;4991707;28;20489;-64
2023/01/05 12:29:03;;;;;;;7.55;3.33;;;;;;;11.10;85.68;94628.22;5009423;28;20050;-65